sensor_id;sensor_type;location;lat;lon;timestamp;P1;durP1;ratioP1;P2;durP2;ratioP2
55224;SDS011;41091;49.400;8.684;2023-05-16T00:00:02;10.32;;;9.25;;
55224;SDS011;41091;49.400;8.684;2023-05-16T00:02:31;12.77;;;8.63;;
55224;SDS011;41091;49.400;8.684;2023-05-16T00:04:56;11.45;;;9.32;;
55224;SDS011;41091;49.400;8.684;2023-05-16T00:07:22;14.35;;;10.50;;
55224;SDS011;41091;49.400;8.684;2023-05-16T00:09:47;10.70;;;9.60;;
55224;SDS011;41091;49.400;8.684;2023-05-16T00:12:12;13.13;;;10.43;;
55224;SDS011;41091;49.400;8.684;2023-05-16T00:14:41;14.02;;;10.75;;
55224;SDS011;41091;49.400;8.684;2023-05-16T00:17:07;16.38;;;11.52;;
55224;SDS011;41091;49.400;8.684;2023-05-16T00:19:36;19.67;;;11.30;;
55224;SDS011;41091;49.400;8.684;2023-05-16T00:22:03;16.70;;;12.13;;
55224;SDS011;41091;49.400;8.684;2023-05-16T00:24:31;23.55;;;13.05;;
55224;SDS011;41091;49.400;8.684;2023-05-16T00:26:57;15.77;;;11.90;;
55224;SDS011;41091;49.400;8.684;2023-05-16T00:29:23;17.40;;;12.27;;
55224;SDS011;41091;49.400;8.684;2023-05-16T00:31:50;13.88;;;10.85;;
55224;SDS011;41091;49.400;8.684;2023-05-16T00:34:16;13.98;;;11.40;;
55224;SDS011;41091;49.400;8.684;2023-05-16T00:36:41;28.77;;;12.45;;
55224;SDS011;41091;49.400;8.684;2023-05-16T00:39:09;12.77;;;10.50;;
55224;SDS011;41091;49.400;8.684;2023-05-16T00:41:35;14.38;;;11.15;;
55224;SDS011;41091;49.400;8.684;2023-05-16T00:44:00;15.85;;;12.30;;
55224;SDS011;41091;49.400;8.684;2023-05-16T00:46:26;21.23;;;12.27;;
55224;SDS011;41091;49.400;8.684;2023-05-16T00:48:51;16.20;;;11.13;;
55224;SDS011;41091;49.400;8.684;2023-05-16T00:51:17;14.68;;;12.70;;
55224;SDS011;41091;49.400;8.684;2023-05-16T00:53:45;15.77;;;11.60;;
55224;SDS011;41091;49.400;8.684;2023-05-16T00:56:10;15.60;;;11.82;;
55224;SDS011;41091;49.400;8.684;2023-05-16T00:58:38;22.73;;;13.43;;
55224;SDS011;41091;49.400;8.684;2023-05-16T01:01:06;26.83;;;14.65;;
55224;SDS011;41091;49.400;8.684;2023-05-16T01:03:31;18.85;;;13.70;;
55224;SDS011;41091;49.400;8.684;2023-05-16T01:05:57;20.13;;;14.93;;
55224;SDS011;41091;49.400;8.684;2023-05-16T01:15:55;22.33;;;15.07;;
55224;SDS011;41091;49.400;8.684;2023-05-16T01:18:26;25.92;;;17.02;;
55224;SDS011;41091;49.400;8.684;2023-05-16T01:21:28;28.13;;;16.65;;
55224;SDS011;41091;49.400;8.684;2023-05-16T01:24:02;20.52;;;15.73;;
55224;SDS011;41091;49.400;8.684;2023-05-16T01:26:31;24.10;;;17.80;;
55224;SDS011;41091;49.400;8.684;2023-05-16T01:28:57;27.77;;;17.00;;
55224;SDS011;41091;49.400;8.684;2023-05-16T01:31:25;27.98;;;17.50;;
55224;SDS011;41091;49.400;8.684;2023-05-16T01:33:53;27.50;;;18.60;;
55224;SDS011;41091;49.400;8.684;2023-05-16T01:42:09;32.40;;;19.80;;
55224;SDS011;41091;49.400;8.684;2023-05-16T01:44:45;34.75;;;19.67;;
55224;SDS011;41091;49.400;8.684;2023-05-16T01:47:16;33.80;;;19.20;;
55224;SDS011;41091;49.400;8.684;2023-05-16T01:50:05;29.55;;;18.33;;
55224;SDS011;41091;49.400;8.684;2023-05-16T01:52:39;32.63;;;20.90;;
55224;SDS011;41091;49.400;8.684;2023-05-16T01:55:10;33.58;;;20.88;;
55224;SDS011;41091;49.400;8.684;2023-05-16T02:00:05;34.70;;;20.00;;
55224;SDS011;41091;49.400;8.684;2023-05-16T02:02:34;40.45;;;21.90;;
55224;SDS011;41091;49.400;8.684;2023-05-16T02:07:27;33.47;;;19.50;;
55224;SDS011;41091;49.400;8.684;2023-05-16T02:09:53;31.02;;;19.35;;
55224;SDS011;41091;49.400;8.684;2023-05-16T02:12:18;30.08;;;19.50;;
55224;SDS011;41091;49.400;8.684;2023-05-16T02:14:46;30.13;;;19.40;;
55224;SDS011;41091;49.400;8.684;2023-05-16T02:17:11;29.63;;;19.48;;
55224;SDS011;41091;49.400;8.684;2023-05-16T02:19:41;31.65;;;19.88;;
55224;SDS011;41091;49.400;8.684;2023-05-16T02:22:06;30.85;;;20.20;;
55224;SDS011;41091;49.400;8.684;2023-05-16T02:24:32;31.83;;;21.40;;
55224;SDS011;41091;49.400;8.684;2023-05-16T02:26:57;30.95;;;19.75;;
55224;SDS011;41091;49.400;8.684;2023-05-16T02:29:23;33.15;;;20.38;;
55224;SDS011;41091;49.400;8.684;2023-05-16T02:31:48;38.47;;;22.17;;
55224;SDS011;41091;49.400;8.684;2023-05-16T02:34:16;35.90;;;22.40;;
55224;SDS011;41091;49.400;8.684;2023-05-16T02:36:43;33.15;;;21.05;;
55224;SDS011;41091;49.400;8.684;2023-05-16T02:39:09;38.97;;;23.02;;
55224;SDS011;41091;49.400;8.684;2023-05-16T02:41:35;36.60;;;22.63;;
55224;SDS011;41091;49.400;8.684;2023-05-16T02:44:00;50.92;;;23.63;;
55224;SDS011;41091;49.400;8.684;2023-05-16T02:46:29;38.35;;;23.13;;
55224;SDS011;41091;49.400;8.684;2023-05-16T02:48:57;35.95;;;22.52;;
55224;SDS011;41091;49.400;8.684;2023-05-16T02:51:24;39.58;;;24.10;;
55224;SDS011;41091;49.400;8.684;2023-05-16T02:53:51;32.42;;;20.50;;
55224;SDS011;41091;49.400;8.684;2023-05-16T02:56:17;36.08;;;22.55;;
55224;SDS011;41091;49.400;8.684;2023-05-16T02:58:46;34.75;;;22.23;;
55224;SDS011;41091;49.400;8.684;2023-05-16T03:01:12;37.53;;;23.50;;
55224;SDS011;41091;49.400;8.684;2023-05-16T03:03:40;35.90;;;22.80;;
55224;SDS011;41091;49.400;8.684;2023-05-16T03:06:05;42.50;;;24.30;;
55224;SDS011;41091;49.400;8.684;2023-05-16T03:08:31;39.47;;;24.35;;
55224;SDS011;41091;49.400;8.684;2023-05-16T03:10:56;36.55;;;23.50;;
55224;SDS011;41091;49.400;8.684;2023-05-16T03:13:24;36.22;;;22.92;;
55224;SDS011;41091;49.400;8.684;2023-05-16T03:15:50;35.30;;;22.48;;
55224;SDS011;41091;49.400;8.684;2023-05-16T03:18:17;34.58;;;22.05;;
55224;SDS011;41091;49.400;8.684;2023-05-16T03:20:42;41.08;;;21.77;;
55224;SDS011;41091;49.400;8.684;2023-05-16T03:23:08;31.02;;;20.98;;
55224;SDS011;41091;49.400;8.684;2023-05-16T03:25:36;34.45;;;21.05;;
55224;SDS011;41091;49.400;8.684;2023-05-16T03:28:06;31.58;;;20.75;;
55224;SDS011;41091;49.400;8.684;2023-05-16T03:30:34;29.80;;;20.48;;
55224;SDS011;41091;49.400;8.684;2023-05-16T03:33:00;36.67;;;20.42;;
55224;SDS011;41091;49.400;8.684;2023-05-16T03:35:28;31.40;;;19.23;;
55224;SDS011;41091;49.400;8.684;2023-05-16T03:37:54;31.35;;;18.52;;
55224;SDS011;41091;49.400;8.684;2023-05-16T03:40:20;29.50;;;18.27;;
55224;SDS011;41091;49.400;8.684;2023-05-16T03:42:45;32.25;;;19.52;;
55224;SDS011;41091;49.400;8.684;2023-05-16T03:45:11;27.48;;;18.75;;
55224;SDS011;41091;49.400;8.684;2023-05-16T03:47:38;29.10;;;18.15;;
55224;SDS011;41091;49.400;8.684;2023-05-16T03:50:04;27.50;;;18.27;;
55224;SDS011;41091;49.400;8.684;2023-05-16T03:52:30;28.73;;;18.08;;
55224;SDS011;41091;49.400;8.684;2023-05-16T03:54:55;27.05;;;17.20;;
55224;SDS011;41091;49.400;8.684;2023-05-16T03:57:21;26.50;;;17.35;;
55224;SDS011;41091;49.400;8.684;2023-05-16T03:59:46;25.88;;;16.92;;
55224;SDS011;41091;49.400;8.684;2023-05-16T04:02:12;23.50;;;16.52;;
55224;SDS011;41091;49.400;8.684;2023-05-16T04:04:39;22.02;;;14.77;;
55224;SDS011;41091;49.400;8.684;2023-05-16T04:07:05;28.75;;;16.00;;
55224;SDS011;41091;49.400;8.684;2023-05-16T04:09:33;21.42;;;16.55;;
55224;SDS011;41091;49.400;8.684;2023-05-16T04:11:58;26.23;;;15.52;;
55224;SDS011;41091;49.400;8.684;2023-05-16T04:14:27;32.00;;;18.30;;
55224;SDS011;41091;49.400;8.684;2023-05-16T04:16:52;21.67;;;15.73;;
55224;SDS011;41091;49.400;8.684;2023-05-16T04:19:20;24.88;;;15.85;;
55224;SDS011;41091;49.400;8.684;2023-05-16T04:21:45;25.52;;;15.70;;
55224;SDS011;41091;49.400;8.684;2023-05-16T04:24:10;26.40;;;14.95;;
55224;SDS011;41091;49.400;8.684;2023-05-16T04:26:36;30.98;;;15.43;;
55224;SDS011;41091;49.400;8.684;2023-05-16T04:29:03;20.52;;;14.27;;
55224;SDS011;41091;49.400;8.684;2023-05-16T04:31:28;22.90;;;15.65;;
55224;SDS011;41091;49.400;8.684;2023-05-16T04:33:55;28.83;;;15.05;;
55224;SDS011;41091;49.400;8.684;2023-05-16T04:36:22;22.73;;;15.52;;
55224;SDS011;41091;49.400;8.684;2023-05-16T04:38:54;21.23;;;13.88;;
55224;SDS011;41091;49.400;8.684;2023-05-16T04:41:21;23.40;;;12.73;;
55224;SDS011;41091;49.400;8.684;2023-05-16T04:43:50;30.08;;;15.90;;
55224;SDS011;41091;49.400;8.684;2023-05-16T04:46:15;26.38;;;14.10;;
55224;SDS011;41091;49.400;8.684;2023-05-16T04:48:41;19.65;;;13.25;;
55224;SDS011;41091;49.400;8.684;2023-05-16T04:51:09;18.02;;;13.00;;
55224;SDS011;41091;49.400;8.684;2023-05-16T04:53:34;18.00;;;12.05;;
55224;SDS011;41091;49.400;8.684;2023-05-16T04:58:32;18.73;;;11.25;;
55224;SDS011;41091;49.400;8.684;2023-05-16T05:01:00;20.52;;;12.63;;
55224;SDS011;41091;49.400;8.684;2023-05-16T05:03:25;18.33;;;12.18;;
55224;SDS011;41091;49.400;8.684;2023-05-16T05:05:51;20.75;;;12.40;;
55224;SDS011;41091;49.400;8.684;2023-05-16T05:08:17;22.00;;;13.50;;
55224;SDS011;41091;49.400;8.684;2023-05-16T05:10:45;23.77;;;12.93;;
55224;SDS011;41091;49.400;8.684;2023-05-16T05:13:10;23.73;;;13.15;;
55224;SDS011;41091;49.400;8.684;2023-05-16T05:15:35;22.80;;;13.35;;
55224;SDS011;41091;49.400;8.684;2023-05-16T05:18:01;23.90;;;14.05;;
55224;SDS011;41091;49.400;8.684;2023-05-16T05:20:26;19.23;;;13.35;;
55224;SDS011;41091;49.400;8.684;2023-05-16T05:22:51;19.05;;;11.65;;
55224;SDS011;41091;49.400;8.684;2023-05-16T05:25:17;24.50;;;13.18;;
55224;SDS011;41091;49.400;8.684;2023-05-16T05:27:44;18.83;;;11.98;;
55224;SDS011;41091;49.400;8.684;2023-05-16T05:30:10;29.23;;;12.77;;
55224;SDS011;41091;49.400;8.684;2023-05-16T05:32:35;22.13;;;12.63;;
55224;SDS011;41091;49.400;8.684;2023-05-16T05:35:01;20.42;;;12.63;;
55224;SDS011;41091;49.400;8.684;2023-05-16T05:37:28;22.95;;;13.70;;
55224;SDS011;41091;49.400;8.684;2023-05-16T05:39:59;19.88;;;14.00;;
55224;SDS011;41091;49.400;8.684;2023-05-16T05:42:24;20.05;;;11.55;;
55224;SDS011;41091;49.400;8.684;2023-05-16T05:44:49;25.08;;;13.32;;
55224;SDS011;41091;49.400;8.684;2023-05-16T05:47:15;17.50;;;12.13;;
55224;SDS011;41091;49.400;8.684;2023-05-16T05:49:41;18.80;;;11.65;;
55224;SDS011;41091;49.400;8.684;2023-05-16T05:52:09;20.80;;;12.88;;
55224;SDS011;41091;49.400;8.684;2023-05-16T05:54:35;17.52;;;11.65;;
55224;SDS011;41091;49.400;8.684;2023-05-16T05:57:00;21.48;;;12.35;;
55224;SDS011;41091;49.400;8.684;2023-05-16T05:59:25;21.48;;;12.18;;
55224;SDS011;41091;49.400;8.684;2023-05-16T06:01:51;22.58;;;13.27;;
55224;SDS011;41091;49.400;8.684;2023-05-16T06:04:17;27.45;;;12.75;;
55224;SDS011;41091;49.400;8.684;2023-05-16T06:06:47;23.58;;;11.88;;
55224;SDS011;41091;49.400;8.684;2023-05-16T06:09:15;23.50;;;11.75;;
55224;SDS011;41091;49.400;8.684;2023-05-16T06:11:41;16.65;;;11.05;;
55224;SDS011;41091;49.400;8.684;2023-05-16T06:14:07;17.98;;;11.82;;
55224;SDS011;41091;49.400;8.684;2023-05-16T06:16:35;20.45;;;11.55;;
55224;SDS011;41091;49.400;8.684;2023-05-16T06:19:04;20.05;;;10.75;;
55224;SDS011;41091;49.400;8.684;2023-05-16T06:21:34;19.20;;;10.70;;
55224;SDS011;41091;49.400;8.684;2023-05-16T06:24:01;22.50;;;12.15;;
55224;SDS011;41091;49.400;8.684;2023-05-16T06:26:27;15.68;;;10.73;;
55224;SDS011;41091;49.400;8.684;2023-05-16T06:28:52;14.18;;;9.70;;
55224;SDS011;41091;49.400;8.684;2023-05-16T06:31:17;19.60;;;11.73;;
55224;SDS011;41091;49.400;8.684;2023-05-16T06:33:45;20.20;;;9.57;;
55224;SDS011;41091;49.400;8.684;2023-05-16T06:36:10;17.83;;;11.65;;
55224;SDS011;41091;49.400;8.684;2023-05-16T06:38:38;18.30;;;10.07;;
55224;SDS011;41091;49.400;8.684;2023-05-16T06:41:06;15.30;;;10.30;;
55224;SDS011;41091;49.400;8.684;2023-05-16T06:43:31;15.25;;;9.45;;
55224;SDS011;41091;49.400;8.684;2023-05-16T06:45:59;16.83;;;10.30;;
55224;SDS011;41091;49.400;8.684;2023-05-16T06:48:24;19.92;;;9.48;;
55224;SDS011;41091;49.400;8.684;2023-05-16T06:50:50;13.88;;;8.70;;
55224;SDS011;41091;49.400;8.684;2023-05-16T06:53:18;15.73;;;8.90;;
55224;SDS011;41091;49.400;8.684;2023-05-16T06:55:43;14.13;;;7.97;;
55224;SDS011;41091;49.400;8.684;2023-05-16T06:58:09;17.40;;;8.52;;
55224;SDS011;41091;49.400;8.684;2023-05-16T07:00:35;11.40;;;7.97;;
55224;SDS011;41091;49.400;8.684;2023-05-16T07:03:00;13.25;;;8.00;;
55224;SDS011;41091;49.400;8.684;2023-05-16T07:05:26;14.43;;;9.10;;
55224;SDS011;41091;49.400;8.684;2023-05-16T07:07:54;10.48;;;7.72;;
55224;SDS011;41091;49.400;8.684;2023-05-16T07:10:22;14.07;;;8.10;;
55224;SDS011;41091;49.400;8.684;2023-05-16T07:12:47;12.75;;;7.13;;
55224;SDS011;41091;49.400;8.684;2023-05-16T07:15:13;10.48;;;6.88;;
55224;SDS011;41091;49.400;8.684;2023-05-16T07:17:40;10.15;;;6.72;;
55224;SDS011;41091;49.400;8.684;2023-05-16T07:20:06;11.38;;;6.80;;
55224;SDS011;41091;49.400;8.684;2023-05-16T07:22:35;24.57;;;8.37;;
55224;SDS011;41091;49.400;8.684;2023-05-16T07:25:00;11.05;;;7.00;;
55224;SDS011;41091;49.400;8.684;2023-05-16T07:27:28;17.65;;;6.45;;
55224;SDS011;41091;49.400;8.684;2023-05-16T07:29:58;8.82;;;6.28;;
55224;SDS011;41091;49.400;8.684;2023-05-16T07:32:26;11.10;;;6.30;;
55224;SDS011;41091;49.400;8.684;2023-05-16T07:34:53;8.75;;;5.97;;
55224;SDS011;41091;49.400;8.684;2023-05-16T07:37:19;7.82;;;6.28;;
55224;SDS011;41091;49.400;8.684;2023-05-16T07:39:44;7.30;;;5.55;;
55224;SDS011;41091;49.400;8.684;2023-05-16T07:42:09;6.07;;;5.07;;
55224;SDS011;41091;49.400;8.684;2023-05-16T07:44:37;6.82;;;5.03;;
55224;SDS011;41091;49.400;8.684;2023-05-16T07:47:02;5.50;;;4.43;;
55224;SDS011;41091;49.400;8.684;2023-05-16T07:49:28;8.90;;;4.25;;
55224;SDS011;41091;49.400;8.684;2023-05-16T07:51:53;5.63;;;4.30;;
55224;SDS011;41091;49.400;8.684;2023-05-16T07:54:18;8.38;;;3.35;;
55224;SDS011;41091;49.400;8.684;2023-05-16T07:56:47;3.42;;;3.13;;
55224;SDS011;41091;49.400;8.684;2023-05-16T07:59:12;3.00;;;2.78;;
55224;SDS011;41091;49.400;8.684;2023-05-16T08:01:39;2.25;;;2.15;;
55224;SDS011;41091;49.400;8.684;2023-05-16T08:04:07;5.35;;;2.83;;
55224;SDS011;41091;49.400;8.684;2023-05-16T08:06:37;2.13;;;1.80;;
55224;SDS011;41091;49.400;8.684;2023-05-16T08:09:02;1.67;;;1.58;;
55224;SDS011;41091;49.400;8.684;2023-05-16T08:11:27;2.10;;;1.55;;
55224;SDS011;41091;49.400;8.684;2023-05-16T08:13:53;1.30;;;1.30;;
55224;SDS011;41091;49.400;8.684;2023-05-16T08:16:18;2.78;;;1.23;;
55224;SDS011;41091;49.400;8.684;2023-05-16T08:18:44;2.10;;;1.52;;
55224;SDS011;41091;49.400;8.684;2023-05-16T08:21:11;2.50;;;1.30;;
55224;SDS011;41091;49.400;8.684;2023-05-16T08:23:40;1.73;;;1.63;;
55224;SDS011;41091;49.400;8.684;2023-05-16T08:26:08;1.80;;;1.42;;
55224;SDS011;41091;49.400;8.684;2023-05-16T08:28:36;1.10;;;1.00;;
55224;SDS011;41091;49.400;8.684;2023-05-16T08:31:01;1.35;;;1.10;;
55224;SDS011;41091;49.400;8.684;2023-05-16T08:33:26;3.15;;;1.33;;
55224;SDS011;41091;49.400;8.684;2023-05-16T08:35:54;6.07;;;0.68;;
55224;SDS011;41091;49.400;8.684;2023-05-16T08:38:20;1.23;;;0.57;;
55224;SDS011;41091;49.400;8.684;2023-05-16T08:40:46;0.60;;;0.60;;
55224;SDS011;41091;49.400;8.684;2023-05-16T08:43:12;2.40;;;0.70;;
55224;SDS011;41091;49.400;8.684;2023-05-16T08:45:38;0.60;;;0.60;;
55224;SDS011;41091;49.400;8.684;2023-05-16T08:48:07;1.23;;;0.50;;
55224;SDS011;41091;49.400;8.684;2023-05-16T08:50:34;1.05;;;0.63;;
55224;SDS011;41091;49.400;8.684;2023-05-16T08:53:03;0.60;;;0.60;;
55224;SDS011;41091;49.400;8.684;2023-05-16T08:55:31;1.13;;;0.95;;
55224;SDS011;41091;49.400;8.684;2023-05-16T08:57:57;0.52;;;0.52;;
55224;SDS011;41091;49.400;8.684;2023-05-16T09:00:25;0.52;;;0.52;;
55224;SDS011;41091;49.400;8.684;2023-05-16T09:02:51;0.47;;;0.47;;
55224;SDS011;41091;49.400;8.684;2023-05-16T09:05:22;0.90;;;0.50;;
55224;SDS011;41091;49.400;8.684;2023-05-16T09:07:48;0.63;;;0.63;;
55224;SDS011;41091;49.400;8.684;2023-05-16T09:10:13;0.90;;;0.55;;
55224;SDS011;41091;49.400;8.684;2023-05-16T09:12:39;0.75;;;0.63;;
55224;SDS011;41091;49.400;8.684;2023-05-16T09:15:08;0.75;;;0.75;;
55224;SDS011;41091;49.400;8.684;2023-05-16T09:20:07;0.60;;;0.60;;
55224;SDS011;41091;49.400;8.684;2023-05-16T09:22:55;0.60;;;0.57;;
55224;SDS011;41091;49.400;8.684;2023-05-16T09:25:22;0.50;;;0.50;;
55224;SDS011;41091;49.400;8.684;2023-05-16T09:27:54;1.10;;;0.52;;
55224;SDS011;41091;49.400;8.684;2023-05-16T09:30:20;2.50;;;0.77;;
55224;SDS011;41091;49.400;8.684;2023-05-16T09:32:49;0.60;;;0.60;;
55224;SDS011;41091;49.400;8.684;2023-05-16T09:35:18;5.65;;;0.65;;
55224;SDS011;41091;49.400;8.684;2023-05-16T09:37:44;0.60;;;0.60;;
55224;SDS011;41091;49.400;8.684;2023-05-16T09:40:11;0.50;;;0.50;;
55224;SDS011;41091;49.400;8.684;2023-05-16T09:42:41;0.50;;;0.50;;
55224;SDS011;41091;49.400;8.684;2023-05-16T09:45:13;0.52;;;0.52;;
55224;SDS011;41091;49.400;8.684;2023-05-16T09:47:41;0.50;;;0.50;;
55224;SDS011;41091;49.400;8.684;2023-05-16T09:50:14;1.30;;;0.43;;
55224;SDS011;41091;49.400;8.684;2023-05-16T09:52:40;0.40;;;0.40;;
55224;SDS011;41091;49.400;8.684;2023-05-16T09:55:08;1.20;;;0.35;;
55224;SDS011;41091;49.400;8.684;2023-05-16T09:57:38;1.48;;;0.40;;
55224;SDS011;41091;49.400;8.684;2023-05-16T10:00:09;1.55;;;0.38;;
55224;SDS011;41091;49.400;8.684;2023-05-16T10:02:36;0.75;;;0.40;;
55224;SDS011;41091;49.400;8.684;2023-05-16T10:05:06;0.25;;;0.25;;
55224;SDS011;41091;49.400;8.684;2023-05-16T10:07:32;0.77;;;0.57;;
55224;SDS011;41091;49.400;8.684;2023-05-16T10:10:05;0.90;;;0.80;;
55224;SDS011;41091;49.400;8.684;2023-05-16T10:12:39;5.68;;;0.60;;
55224;SDS011;41091;49.400;8.684;2023-05-16T10:15:07;0.43;;;0.43;;
55224;SDS011;41091;49.400;8.684;2023-05-16T10:17:38;4.65;;;0.40;;
55224;SDS011;41091;49.400;8.684;2023-05-16T10:20:05;0.22;;;0.22;;
55224;SDS011;41091;49.400;8.684;2023-05-16T10:22:33;0.40;;;0.40;;
55224;SDS011;41091;49.400;8.684;2023-05-16T10:25:03;2.92;;;0.60;;
55224;SDS011;41091;49.400;8.684;2023-05-16T10:27:36;0.65;;;0.65;;
55224;SDS011;41091;49.400;8.684;2023-05-16T10:30:01;3.40;;;0.50;;
55224;SDS011;41091;49.400;8.684;2023-05-16T10:32:27;0.80;;;0.70;;
55224;SDS011;41091;49.400;8.684;2023-05-16T10:34:55;0.65;;;0.63;;
55224;SDS011;41091;49.400;8.684;2023-05-16T10:37:22;20.42;;;7.25;;
55224;SDS011;41091;49.400;8.684;2023-05-16T10:39:47;3.83;;;1.60;;
55224;SDS011;41091;49.400;8.684;2023-05-16T10:42:17;5.95;;;1.30;;
55224;SDS011;41091;49.400;8.684;2023-05-16T10:44:44;2.70;;;0.50;;
55224;SDS011;41091;49.400;8.684;2023-05-16T10:47:12;1.25;;;0.70;;
55224;SDS011;41091;49.400;8.684;2023-05-16T10:49:43;0.73;;;0.57;;
55224;SDS011;41091;49.400;8.684;2023-05-16T10:52:11;2.90;;;0.70;;
55224;SDS011;41091;49.400;8.684;2023-05-16T10:54:41;8.70;;;1.50;;
55224;SDS011;41091;49.400;8.684;2023-05-16T10:57:08;1.55;;;0.80;;
55224;SDS011;41091;49.400;8.684;2023-05-16T10:59:43;1.70;;;1.50;;
55224;SDS011;41091;49.400;8.684;2023-05-16T11:04:57;4.38;;;1.80;;
55224;SDS011;41091;49.400;8.684;2023-05-16T11:07:24;5.20;;;1.58;;
55224;SDS011;41091;49.400;8.684;2023-05-16T11:12:41;2.25;;;1.50;;
55224;SDS011;41091;49.400;8.684;2023-05-16T11:15:16;1.65;;;0.90;;
55224;SDS011;41091;49.400;8.684;2023-05-16T11:17:46;3.40;;;1.48;;
55224;SDS011;41091;49.400;8.684;2023-05-16T11:20:28;2.05;;;1.30;;
55224;SDS011;41091;49.400;8.684;2023-05-16T11:25:56;3.90;;;1.02;;
55224;SDS011;41091;49.400;8.684;2023-05-16T11:30:56;4.57;;;1.13;;
55224;SDS011;41091;49.400;8.684;2023-05-16T11:33:23;1.45;;;0.80;;
55224;SDS011;41091;49.400;8.684;2023-05-16T11:36:02;0.50;;;0.50;;
55224;SDS011;41091;49.400;8.684;2023-05-16T11:38:34;3.70;;;1.33;;
55224;SDS011;41091;49.400;8.684;2023-05-16T11:41:03;3.33;;;0.80;;
55224;SDS011;41091;49.400;8.684;2023-05-16T11:43:38;1.50;;;1.23;;
55224;SDS011;41091;49.400;8.684;2023-05-16T11:46:05;3.45;;;0.80;;
55224;SDS011;41091;49.400;8.684;2023-05-16T11:48:31;1.55;;;1.13;;
55224;SDS011;41091;49.400;8.684;2023-05-16T11:50:57;1.02;;;1.02;;
55224;SDS011;41091;49.400;8.684;2023-05-16T11:53:22;1.23;;;1.00;;
55224;SDS011;41091;49.400;8.684;2023-05-16T11:55:48;2.42;;;1.17;;
55224;SDS011;41091;49.400;8.684;2023-05-16T11:58:16;1.45;;;0.70;;
55224;SDS011;41091;49.400;8.684;2023-05-16T12:00:46;3.25;;;0.90;;
55224;SDS011;41091;49.400;8.684;2023-05-16T12:03:16;2.63;;;0.88;;
55224;SDS011;41091;49.400;8.684;2023-05-16T12:05:49;1.25;;;0.93;;
55224;SDS011;41091;49.400;8.684;2023-05-16T12:08:17;2.58;;;0.55;;
55224;SDS011;41091;49.400;8.684;2023-05-16T12:10:45;0.80;;;0.50;;
55224;SDS011;41091;49.400;8.684;2023-05-16T12:13:13;1.25;;;0.60;;
55224;SDS011;41091;49.400;8.684;2023-05-16T12:15:38;1.67;;;0.70;;
55224;SDS011;41091;49.400;8.684;2023-05-16T12:18:04;0.52;;;0.50;;
55224;SDS011;41091;49.400;8.684;2023-05-16T12:20:29;1.88;;;0.60;;
55224;SDS011;41091;49.400;8.684;2023-05-16T12:22:56;2.17;;;0.82;;
55224;SDS011;41091;49.400;8.684;2023-05-16T12:25:25;1.08;;;0.80;;
55224;SDS011;41091;49.400;8.684;2023-05-16T12:27:53;4.63;;;0.80;;
55224;SDS011;41091;49.400;8.684;2023-05-16T12:30:25;4.82;;;0.85;;
55224;SDS011;41091;49.400;8.684;2023-05-16T12:32:55;1.52;;;0.85;;
55224;SDS011;41091;49.400;8.684;2023-05-16T12:35:21;1.45;;;0.77;;
55224;SDS011;41091;49.400;8.684;2023-05-16T12:37:48;5.13;;;0.80;;
55224;SDS011;41091;49.400;8.684;2023-05-16T12:40:13;1.85;;;1.27;;
55224;SDS011;41091;49.400;8.684;2023-05-16T12:42:39;0.70;;;0.70;;
55224;SDS011;41091;49.400;8.684;2023-05-16T12:45:14;1.27;;;0.90;;
55224;SDS011;41091;49.400;8.684;2023-05-16T12:47:41;2.17;;;1.13;;
55224;SDS011;41091;49.400;8.684;2023-05-16T12:50:13;2.45;;;0.80;;
55224;SDS011;41091;49.400;8.684;2023-05-16T12:52:57;4.05;;;1.35;;
55224;SDS011;41091;49.400;8.684;2023-05-16T12:55:23;5.68;;;1.20;;
55224;SDS011;41091;49.400;8.684;2023-05-16T12:57:49;3.50;;;0.75;;
55224;SDS011;41091;49.400;8.684;2023-05-16T13:00:19;2.92;;;1.00;;
55224;SDS011;41091;49.400;8.684;2023-05-16T13:02:46;1.52;;;1.08;;
55224;SDS011;41091;49.400;8.684;2023-05-16T13:05:14;2.50;;;1.05;;
55224;SDS011;41091;49.400;8.684;2023-05-16T13:07:42;3.63;;;0.93;;
55224;SDS011;41091;49.400;8.684;2023-05-16T13:10:08;1.35;;;0.98;;
55224;SDS011;41091;49.400;8.684;2023-05-16T13:12:37;1.48;;;0.77;;
55224;SDS011;41091;49.400;8.684;2023-05-16T13:15:04;8.68;;;1.40;;
55224;SDS011;41091;49.400;8.684;2023-05-16T13:17:39;4.15;;;1.00;;
55224;SDS011;41091;49.400;8.684;2023-05-16T13:20:08;3.25;;;0.77;;
55224;SDS011;41091;49.400;8.684;2023-05-16T13:22:38;3.53;;;1.00;;
55224;SDS011;41091;49.400;8.684;2023-05-16T13:25:06;3.60;;;1.08;;
55224;SDS011;41091;49.400;8.684;2023-05-16T13:27:32;2.40;;;1.23;;
55224;SDS011;41091;49.400;8.684;2023-05-16T13:30:00;2.78;;;1.17;;
55224;SDS011;41091;49.400;8.684;2023-05-16T13:32:28;2.35;;;0.98;;
55224;SDS011;41091;49.400;8.684;2023-05-16T13:34:53;5.50;;;2.25;;
55224;SDS011;41091;49.400;8.684;2023-05-16T13:37:19;4.95;;;1.27;;
55224;SDS011;41091;49.400;8.684;2023-05-16T13:39:44;7.85;;;1.33;;
55224;SDS011;41091;49.400;8.684;2023-05-16T13:42:09;4.57;;;2.00;;
55224;SDS011;41091;49.400;8.684;2023-05-16T13:44:35;4.07;;;1.23;;
55224;SDS011;41091;49.400;8.684;2023-05-16T13:47:01;3.38;;;1.10;;
55224;SDS011;41091;49.400;8.684;2023-05-16T13:49:26;9.63;;;1.33;;
55224;SDS011;41091;49.400;8.684;2023-05-16T13:51:54;3.13;;;0.85;;
55224;SDS011;41091;49.400;8.684;2023-05-16T13:54:21;5.97;;;1.17;;
55224;SDS011;41091;49.400;8.684;2023-05-16T13:56:49;3.58;;;1.25;;
55224;SDS011;41091;49.400;8.684;2023-05-16T13:59:17;2.85;;;1.10;;
55224;SDS011;41091;49.400;8.684;2023-05-16T14:01:42;4.40;;;1.20;;
55224;SDS011;41091;49.400;8.684;2023-05-16T14:04:08;3.60;;;0.90;;
55224;SDS011;41091;49.400;8.684;2023-05-16T14:06:33;3.35;;;1.15;;
55224;SDS011;41091;49.400;8.684;2023-05-16T14:08:58;3.53;;;0.88;;
55224;SDS011;41091;49.400;8.684;2023-05-16T14:11:24;7.57;;;1.10;;
55224;SDS011;41091;49.400;8.684;2023-05-16T14:13:52;5.97;;;1.10;;
55224;SDS011;41091;49.400;8.684;2023-05-16T14:16:20;5.45;;;1.10;;
55224;SDS011;41091;49.400;8.684;2023-05-16T14:18:45;1.58;;;0.70;;
55224;SDS011;41091;49.400;8.684;2023-05-16T14:21:11;4.47;;;1.15;;
55224;SDS011;41091;49.400;8.684;2023-05-16T14:23:36;5.43;;;0.80;;
55224;SDS011;41091;49.400;8.684;2023-05-16T14:26:02;1.30;;;1.00;;
55224;SDS011;41091;49.400;8.684;2023-05-16T14:28:31;4.32;;;0.80;;
55224;SDS011;41091;49.400;8.684;2023-05-16T14:31:01;3.00;;;0.90;;
55224;SDS011;41091;49.400;8.684;2023-05-16T14:33:29;5.72;;;1.05;;
55224;SDS011;41091;49.400;8.684;2023-05-16T14:35:57;7.25;;;2.80;;
55224;SDS011;41091;49.400;8.684;2023-05-16T14:38:25;1.60;;;0.70;;
55224;SDS011;41091;49.400;8.684;2023-05-16T14:40:52;14.27;;;1.05;;
55224;SDS011;41091;49.400;8.684;2023-05-16T14:43:18;2.35;;;2.15;;
55224;SDS011;41091;49.400;8.684;2023-05-16T14:45:45;4.68;;;0.82;;
55224;SDS011;41091;49.400;8.684;2023-05-16T14:48:11;4.85;;;0.90;;
55224;SDS011;41091;49.400;8.684;2023-05-16T14:50:39;2.50;;;1.02;;
55224;SDS011;41091;49.400;8.684;2023-05-16T14:53:04;8.30;;;1.25;;
55224;SDS011;41091;49.400;8.684;2023-05-16T14:55:30;4.32;;;1.23;;
55224;SDS011;41091;49.400;8.684;2023-05-16T14:57:55;3.03;;;0.88;;
55224;SDS011;41091;49.400;8.684;2023-05-16T15:02:51;3.85;;;1.13;;
55224;SDS011;41091;49.400;8.684;2023-05-16T15:05:16;2.70;;;0.80;;
55224;SDS011;41091;49.400;8.684;2023-05-16T15:07:42;3.72;;;0.80;;
55224;SDS011;41091;49.400;8.684;2023-05-16T15:10:13;6.25;;;1.08;;
55224;SDS011;41091;49.400;8.684;2023-05-16T15:12:41;2.55;;;0.68;;